createdAt,value
2023-02-09T00:01:18.953Z,97.40
2023-02-09T00:03:46.050Z,97.40
2023-02-09T00:06:15.691Z,97.40
2023-02-09T00:11:15.255Z,97.50
2023-02-09T00:13:43.905Z,97.60
2023-02-09T00:16:11.093Z,97.50
2023-02-09T00:21:10.842Z,97.50
2023-02-09T00:23:40.437Z,97.60
2023-02-09T00:26:10.657Z,97.70
2023-02-09T00:28:38.001Z,97.80
2023-02-09T00:31:09.964Z,98.00
2023-02-09T00:33:37.705Z,97.80
2023-02-09T00:36:06.178Z,98.00
2023-02-09T00:41:00.104Z,98.60
2023-02-09T00:43:26.886Z,99.00
2023-02-09T00:45:53.663Z,99.30
2023-02-09T00:50:47.684Z,99.20
2023-02-09T00:55:41.560Z,99.30
2023-02-09T00:58:08.327Z,99.30
2023-02-09T01:03:02.216Z,99.00
2023-02-09T01:10:23.670Z,98.80
2023-02-09T01:12:50.675Z,99.00
2023-02-09T01:17:44.725Z,97.90
2023-02-09T01:20:13.977Z,97.30
2023-02-09T01:25:08.378Z,95.60
2023-02-09T01:27:36.636Z,95.60
2023-02-09T01:32:30.551Z,94.40
2023-02-09T01:34:57.313Z,94.70
2023-02-09T01:39:51.317Z,94.90
2023-02-09T01:42:20.437Z,95.30
2023-02-09T01:44:47.096Z,95.60
2023-02-09T01:47:15.376Z,96.00
2023-02-09T01:49:46.231Z,96.60
2023-02-09T01:52:18.117Z,97.40
2023-02-09T01:55:01.414Z,97.80
2023-02-09T02:00:07.388Z,98.20
2023-02-09T02:02:34.616Z,98.40
2023-02-09T02:05:01.869Z,98.80
2023-02-09T02:07:50.130Z,98.80
2023-02-09T02:12:44.284Z,99.30
2023-02-09T02:18:04.881Z,98.70
2023-02-09T02:20:54.878Z,99.00
2023-02-09T02:23:32.833Z,99.00
2023-02-09T02:26:31.466Z,99.10
2023-02-09T02:29:13.405Z,99.10
2023-02-09T02:31:49.437Z,98.90
2023-02-09T02:34:39.796Z,99.10
2023-02-09T02:37:32.093Z,99.40
2023-02-09T02:40:15.246Z,99.20
2023-02-09T02:42:48.710Z,99.20
2023-02-09T02:45:33.529Z,99.10
2023-02-09T02:51:01.614Z,98.90
2023-02-09T02:53:34.299Z,98.90
2023-02-09T02:56:08.693Z,98.90
2023-02-09T02:58:38.796Z,98.70
2023-02-09T03:01:10.181Z,99.00
2023-02-09T03:03:39.123Z,99.60
2023-02-09T03:06:07.210Z,99.90
2023-02-09T03:08:55.425Z,99.90
2023-02-09T03:11:27.291Z,99.90
2023-02-09T03:14:12.366Z,99.90
2023-02-09T03:20:36.247Z,99.90
2023-02-09T03:23:07.472Z,99.80
2023-02-09T03:25:43.699Z,99.60
2023-02-09T03:28:24.567Z,99.40
2023-02-09T03:30:52.949Z,99.80
2023-02-09T03:33:23.026Z,99.90
2023-02-09T03:35:54.655Z,99.90
2023-02-09T03:38:21.512Z,99.90
2023-02-09T03:40:48.300Z,99.90
2023-02-09T03:43:15.076Z,99.80
2023-02-09T03:50:36.928Z,97.50
2023-02-09T03:53:06.525Z,96.60
2023-02-09T03:55:33.749Z,96.10
2023-02-09T03:58:00.709Z,95.70
2023-02-09T04:00:27.528Z,95.20
2023-02-09T04:02:54.298Z,95.20
2023-02-09T04:07:49.729Z,95.60
2023-02-09T04:10:16.572Z,95.80
2023-02-09T04:15:10.515Z,95.80
2023-02-09T04:20:04.655Z,96.80
2023-02-09T04:24:58.464Z,97.40
2023-02-09T04:37:15.301Z,95.20
2023-02-09T04:44:36.459Z,93.60
2023-02-09T04:47:03.396Z,93.20
2023-02-09T04:49:30.074Z,92.70
2023-02-09T04:59:40.488Z,91.00
2023-02-09T05:02:07.712Z,91.00
2023-02-09T05:07:02.074Z,91.30
2023-02-09T05:09:28.889Z,91.50
2023-02-09T05:11:55.730Z,91.80
2023-02-09T05:21:43.839Z,91.50
2023-02-09T05:24:10.643Z,91.50
2023-02-09T05:26:37.362Z,91.60
2023-02-09T05:29:04.630Z,91.80
2023-02-09T05:31:31.470Z,91.70
2023-02-09T05:38:52.482Z,91.20
2023-02-09T05:44:05.107Z,90.80
2023-02-09T05:48:58.991Z,90.90
2023-02-09T05:53:54.040Z,91.90
2023-02-09T05:56:22.555Z,92.30
2023-02-09T05:58:49.305Z,93.00
2023-02-09T06:01:16.132Z,93.20
2023-02-09T06:03:42.946Z,93.60
2023-02-09T06:11:06.086Z,94.50
2023-02-09T06:13:33.381Z,94.60
2023-02-09T06:16:00.309Z,94.50
2023-02-09T06:20:54.338Z,94.10
2023-02-09T06:25:48.567Z,93.80
2023-02-09T06:30:42.590Z,93.20
2023-02-09T06:33:09.280Z,93.00
2023-02-09T06:40:30.224Z,92.90
2023-02-09T06:42:57.125Z,93.10
2023-02-09T06:45:24.002Z,93.30
2023-02-09T06:50:18.740Z,93.30
2023-02-09T06:52:46.347Z,93.40
2023-02-09T06:55:13.314Z,93.90
2023-02-09T06:57:40.569Z,93.90
2023-02-09T07:00:08.957Z,94.20
2023-02-09T07:02:35.914Z,94.40
2023-02-09T07:05:02.699Z,94.40
2023-02-09T07:14:52.242Z,95.10
2023-02-09T07:19:46.455Z,94.90
2023-02-09T07:22:13.210Z,95.00
2023-02-09T07:24:39.998Z,95.50
2023-02-09T07:27:07.257Z,95.20
2023-02-09T07:29:34.466Z,94.10
2023-02-09T07:34:28.415Z,93.50
2023-02-09T07:36:55.195Z,92.50
2023-02-09T07:46:43.694Z,89.80
2023-02-09T07:49:10.942Z,89.00
2023-02-09T07:51:38.841Z,88.30
2023-02-09T07:54:07.444Z,87.30
2023-02-09T07:56:34.356Z,86.00
2023-02-09T07:59:01.115Z,85.80
2023-02-09T08:01:27.918Z,85.40
2023-02-09T08:06:40.754Z,82.20
2023-02-09T08:09:10.331Z,81.20
2023-02-09T08:11:50.050Z,80.50
2023-02-09T08:14:30.404Z,80.10
2023-02-09T08:17:24.764Z,80.00
2023-02-09T08:20:02.229Z,81.50
2023-02-09T08:22:32.401Z,81.60
2023-02-09T08:25:01.011Z,81.10
2023-02-09T08:27:28.021Z,81.40
2023-02-09T08:32:21.986Z,81.70
2023-02-09T08:34:48.679Z,82.80
2023-02-09T08:37:15.406Z,82.90
2023-02-09T08:39:42.099Z,83.70
2023-02-09T08:42:08.848Z,83.80
2023-02-09T08:44:35.608Z,84.00
2023-02-09T08:47:02.501Z,83.60
2023-02-09T08:49:29.357Z,83.70
2023-02-09T08:51:56.099Z,83.60
2023-02-09T08:54:22.859Z,83.20
2023-02-09T08:59:19.717Z,83.10
2023-02-09T09:01:46.722Z,83.10
2023-02-09T09:04:13.577Z,83.00
2023-02-09T09:06:40.356Z,83.00
2023-02-09T09:09:07.045Z,82.00
2023-02-09T09:11:34.039Z,80.90
2023-02-09T09:14:00.722Z,79.80
2023-02-09T09:16:27.539Z,79.90
2023-02-09T09:18:54.293Z,79.80
2023-02-09T09:21:21.087Z,80.10
2023-02-09T09:23:48.008Z,79.60
2023-02-09T09:26:15.505Z,79.90
2023-02-09T09:28:42.604Z,79.20
2023-02-09T09:31:15.041Z,79.30
2023-02-09T09:33:42.320Z,78.80
2023-02-09T09:36:09.467Z,78.70
2023-02-09T09:38:37.908Z,78.80
2023-02-09T09:41:06.949Z,79.30
2023-02-09T09:43:37.328Z,78.90
2023-02-09T09:46:06.786Z,79.00
2023-02-09T09:48:43.912Z,78.00
2023-02-09T09:51:28.038Z,77.70
2023-02-09T09:53:57.540Z,78.40
2023-02-09T09:56:27.074Z,78.70
2023-02-09T09:58:54.064Z,78.70
2023-02-09T10:01:21.596Z,78.10
2023-02-09T10:03:48.458Z,77.50
2023-02-09T10:06:20.130Z,77.80
2023-02-09T10:08:59.519Z,77.80
2023-02-09T10:11:48.561Z,77.20
2023-02-09T10:14:16.043Z,76.50
2023-02-09T10:16:44.399Z,76.20
2023-02-09T10:19:26.018Z,76.30
2023-02-09T10:21:54.194Z,76.20
2023-02-09T10:24:24.841Z,76.50
2023-02-09T10:27:02.041Z,76.70
2023-02-09T10:29:28.732Z,77.30
2023-02-09T10:32:01.300Z,76.90
2023-02-09T10:34:50.218Z,77.10
2023-02-09T10:37:24.906Z,76.70
2023-02-09T10:40:26.815Z,76.40
2023-02-09T10:42:59.925Z,76.50
2023-02-09T10:45:39.520Z,77.70
2023-02-09T10:48:12.387Z,77.30
2023-02-09T10:50:52.595Z,76.60
2023-02-09T10:53:29.972Z,76.60
2023-02-09T10:56:16.754Z,76.30
2023-02-09T10:58:58.537Z,76.40
2023-02-09T11:01:28.848Z,76.20
2023-02-09T11:04:04.844Z,75.80
2023-02-09T11:06:51.834Z,75.50
2023-02-09T11:09:28.719Z,74.70
2023-02-09T11:14:23.355Z,74.10
2023-02-09T11:17:08.693Z,74.60
2023-02-09T11:19:54.221Z,73.40
2023-02-09T11:22:46.492Z,73.50
2023-02-09T11:25:38.244Z,73.40
2023-02-09T11:28:21.454Z,73.20
2023-02-09T11:31:32.170Z,74.20
2023-02-09T11:34:16.820Z,73.70
2023-02-09T11:37:05.897Z,73.60
2023-02-09T11:39:57.110Z,74.00
2023-02-09T11:42:44.443Z,73.40
2023-02-09T11:45:14.195Z,73.20
2023-02-09T11:48:10.965Z,73.30
2023-02-09T11:50:44.338Z,73.10
2023-02-09T11:53:38.763Z,72.80
2023-02-09T11:56:14.438Z,73.80
2023-02-09T11:58:53.304Z,73.10
2023-02-09T12:01:42.274Z,73.00
2023-02-09T12:04:24.027Z,73.00
2023-02-09T12:06:58.676Z,73.70
2023-02-09T12:09:47.212Z,74.20
2023-02-09T12:12:32.821Z,74.40
2023-02-09T12:15:29.782Z,74.00
2023-02-09T12:17:56.443Z,72.60
2023-02-09T12:20:26.256Z,73.00
2023-02-09T12:23:01.378Z,73.20
2023-02-09T12:25:46.842Z,72.90
2023-02-09T12:28:16.932Z,72.90
2023-02-09T12:30:43.914Z,73.30
2023-02-09T12:33:18.203Z,72.90
2023-02-09T12:36:01.474Z,73.10
2023-02-09T12:38:49.494Z,73.90
2023-02-09T12:41:22.782Z,73.90
2023-02-09T12:43:50.708Z,74.30
2023-02-09T12:46:52.841Z,75.10
2023-02-09T12:49:21.741Z,75.10
2023-02-09T12:51:54.308Z,75.10
2023-02-09T12:54:48.123Z,75.00
2023-02-09T12:57:20.621Z,74.50
2023-02-09T12:59:50.724Z,74.70
2023-02-09T13:02:49.607Z,74.10
2023-02-09T13:05:16.331Z,74.40
2023-02-09T13:08:18.610Z,74.70
2023-02-09T13:10:51.322Z,74.90
2023-02-09T13:13:29.790Z,75.00
2023-02-09T13:16:03.347Z,75.10
2023-02-09T13:18:44.839Z,74.90
2023-02-09T13:21:48.521Z,75.40
2023-02-09T13:24:18.487Z,75.50
2023-02-09T13:26:59.211Z,75.40
2023-02-09T13:29:31.522Z,75.90
2023-02-09T13:32:30.896Z,76.60
2023-02-09T13:35:09.232Z,75.90
2023-02-09T13:37:52.302Z,76.00
2023-02-09T13:40:23.926Z,76.40
2023-02-09T13:43:01.651Z,76.30
2023-02-09T13:45:28.666Z,76.70
2023-02-09T13:47:57.106Z,77.00
2023-02-09T13:50:26.066Z,76.90
2023-02-09T13:52:52.997Z,76.30
2023-02-09T13:55:27.351Z,76.40
2023-02-09T13:58:04.256Z,76.50
2023-02-09T14:00:39.999Z,76.80
2023-02-09T14:03:16.791Z,76.90
2023-02-09T14:06:00.575Z,77.20
2023-02-09T14:08:29.073Z,77.40
2023-02-09T14:11:01.434Z,77.50
2023-02-09T14:13:35.262Z,77.30
2023-02-09T14:16:09.700Z,76.80
2023-02-09T14:18:51.728Z,76.90
2023-02-09T14:21:23.261Z,77.20
2023-02-09T14:24:23.679Z,77.80
2023-02-09T14:27:33.059Z,77.80
2023-02-09T14:30:01.265Z,77.70
2023-02-09T14:32:38.060Z,78.20
2023-02-09T14:35:16.961Z,78.50
2023-02-09T14:37:44.621Z,78.10
2023-02-09T14:40:11.734Z,78.10
2023-02-09T14:42:59.707Z,78.30
2023-02-09T14:45:51.794Z,77.70
2023-02-09T14:48:26.755Z,78.00
2023-02-09T14:50:59.212Z,78.20
2023-02-09T14:53:29.993Z,78.50
2023-02-09T14:55:57.377Z,78.10
2023-02-09T14:58:30.493Z,78.10
2023-02-09T15:01:00.223Z,78.30
2023-02-09T15:03:27.071Z,78.10
2023-02-09T15:06:03.284Z,78.40
2023-02-09T15:08:33.383Z,78.80
2023-02-09T15:11:03.258Z,78.80
2023-02-09T15:13:32.499Z,78.60
2023-02-09T15:15:59.310Z,79.70
2023-02-09T15:18:27.067Z,79.30
2023-02-09T15:20:53.969Z,79.30
2023-02-09T15:23:20.730Z,79.00
2023-02-09T15:25:48.036Z,78.90
2023-02-09T15:28:28.440Z,79.20
2023-02-09T15:30:56.419Z,78.80
2023-02-09T15:33:23.418Z,78.90
2023-02-09T15:35:50.271Z,79.20
2023-02-09T15:38:18.406Z,79.60
2023-02-09T15:41:05.596Z,79.70
2023-02-09T15:43:51.213Z,80.10
2023-02-09T15:46:36.814Z,80.50
2023-02-09T15:49:05.592Z,80.60
2023-02-09T15:51:36.746Z,80.60
2023-02-09T15:54:12.115Z,80.80
2023-02-09T15:56:39.186Z,81.00
2023-02-09T15:59:06.478Z,81.50
2023-02-09T16:01:33.919Z,81.10
2023-02-09T16:04:13.365Z,81.60
2023-02-09T16:06:43.916Z,81.50
2023-02-09T16:09:18.844Z,81.70
2023-02-09T16:11:45.695Z,81.50
2023-02-09T16:14:21.283Z,81.70
2023-02-09T16:16:49.041Z,81.80
2023-02-09T16:19:16.873Z,81.80
2023-02-09T16:21:50.448Z,81.40
2023-02-09T16:24:32.993Z,82.20
2023-02-09T16:27:01.917Z,81.90
2023-02-09T16:29:29.105Z,82.50
2023-02-09T16:31:55.956Z,82.50
2023-02-09T16:34:22.723Z,82.70
2023-02-09T16:36:49.935Z,83.00
2023-02-09T16:39:19.470Z,83.80
2023-02-09T16:41:47.344Z,84.00
2023-02-09T16:44:23.308Z,84.20
2023-02-09T16:46:56.357Z,84.80
2023-02-09T16:49:41.531Z,85.30
2023-02-09T16:52:21.674Z,85.50
2023-02-09T16:54:52.225Z,85.40
2023-02-09T16:57:23.107Z,85.30
2023-02-09T16:59:50.549Z,84.90
2023-02-09T17:03:07.467Z,84.70
2023-02-09T17:05:37.117Z,84.60
2023-02-09T17:08:17.256Z,84.60
2023-02-09T17:10:44.555Z,84.70
2023-02-09T17:13:11.783Z,84.50
2023-02-09T17:15:45.228Z,84.60
2023-02-09T17:18:20.214Z,84.90
2023-02-09T17:20:52.796Z,85.00
2023-02-09T17:23:23.448Z,84.80
2023-02-09T17:25:51.604Z,84.60
2023-02-09T17:28:19.202Z,84.70
2023-02-09T17:30:47.740Z,84.80
2023-02-09T17:33:27.366Z,84.80
2023-02-09T17:36:24.754Z,84.80
2023-02-09T17:38:44.132Z,85.00
2023-02-09T17:41:18.260Z,85.00
2023-02-09T17:46:14.618Z,85.30
2023-02-09T17:48:41.718Z,85.10
2023-02-09T17:51:26.360Z,85.10
2023-02-09T17:53:53.310Z,84.90
2023-02-09T17:58:47.934Z,85.40
2023-02-09T18:01:29.894Z,85.20
2023-02-09T18:04:00.902Z,85.30
2023-02-09T18:06:39.850Z,85.40
2023-02-09T18:09:09.085Z,85.30
2023-02-09T18:11:45.028Z,85.20
2023-02-09T18:14:16.621Z,85.00
2023-02-09T18:16:43.667Z,85.30
2023-02-09T18:19:11.278Z,85.30
2023-02-09T18:21:39.252Z,85.30
2023-02-09T18:24:06.404Z,85.20
2023-02-09T18:31:27.055Z,84.90
2023-02-09T18:33:54.168Z,85.00
2023-02-09T18:36:20.975Z,84.80
2023-02-09T18:38:49.172Z,84.90
2023-02-09T18:41:15.926Z,84.80
2023-02-09T18:43:42.707Z,84.90
2023-02-09T18:46:13.762Z,84.90
2023-02-09T18:48:40.499Z,84.90
2023-02-09T18:51:08.525Z,84.90
2023-02-09T18:53:35.762Z,85.10
2023-02-09T18:56:02.508Z,85.10
2023-02-09T18:58:29.314Z,85.00
2023-02-09T19:00:56.185Z,84.80
2023-02-09T19:03:23.255Z,84.90
2023-02-09T19:05:50.093Z,85.00
2023-02-09T19:08:16.822Z,85.00
2023-02-09T19:10:45.125Z,84.70
2023-02-09T19:13:11.958Z,84.70
2023-02-09T19:15:39.909Z,84.70
2023-02-09T19:18:06.709Z,84.70
2023-02-09T19:20:34.262Z,84.60
2023-02-09T19:23:02.492Z,84.30
2023-02-09T19:25:30.179Z,84.40
2023-02-09T19:27:57.307Z,84.50
2023-02-09T19:30:26.370Z,84.40
2023-02-09T19:32:55.000Z,84.30
2023-02-09T19:35:22.898Z,84.30
2023-02-09T19:37:53.810Z,84.40
2023-02-09T19:40:27.490Z,84.10
2023-02-09T19:42:55.559Z,84.40
2023-02-09T19:45:23.085Z,84.70
2023-02-09T19:47:50.019Z,85.00
2023-02-09T19:50:17.494Z,85.40
2023-02-09T19:55:15.284Z,86.70
2023-02-09T19:57:42.777Z,86.90
2023-02-09T20:00:14.705Z,87.50
2023-02-09T20:02:41.593Z,88.40
2023-02-09T20:05:08.619Z,89.30
2023-02-09T20:07:35.739Z,90.20
2023-02-09T20:10:02.479Z,91.70
2023-02-09T20:12:29.377Z,92.80
2023-02-09T20:14:56.147Z,92.90
2023-02-09T20:17:23.148Z,93.20
2023-02-09T20:22:17.391Z,94.20
2023-02-09T20:24:47.070Z,94.70
2023-02-09T20:27:13.879Z,94.60
2023-02-09T20:29:40.755Z,94.90
2023-02-09T20:32:07.535Z,95.30
2023-02-09T20:34:34.333Z,95.50
2023-02-09T20:37:01.202Z,96.00
2023-02-09T20:39:28.110Z,96.10
2023-02-09T20:42:16.332Z,96.50
2023-02-09T20:45:02.578Z,96.70
2023-02-09T20:47:32.104Z,96.80
2023-02-09T20:50:00.378Z,97.20
2023-02-09T20:52:29.243Z,97.30
2023-02-09T20:54:56.530Z,97.20
2023-02-09T20:57:29.336Z,97.30
2023-02-09T20:59:57.584Z,97.40
2023-02-09T21:02:25.479Z,97.30
2023-02-09T21:04:56.025Z,97.20
2023-02-09T21:07:23.323Z,97.30
2023-02-09T21:09:50.090Z,97.60
2023-02-09T21:12:16.847Z,97.80
2023-02-09T21:14:46.411Z,97.80
2023-02-09T21:17:13.950Z,98.00
2023-02-09T21:19:41.106Z,98.10
2023-02-09T21:22:07.967Z,98.20
2023-02-09T21:24:35.043Z,98.20
2023-02-09T21:27:01.831Z,98.40
2023-02-09T21:29:29.311Z,98.50
2023-02-09T21:32:00.617Z,98.40
2023-02-09T21:34:27.356Z,98.50
2023-02-09T21:36:54.149Z,98.70
2023-02-09T21:42:06.567Z,98.60
2023-02-09T21:44:36.910Z,98.60
2023-02-09T21:47:03.882Z,98.60
2023-02-09T21:49:31.859Z,98.70
2023-02-09T21:51:59.394Z,98.80
2023-02-09T21:54:28.191Z,98.80
2023-02-09T21:56:55.729Z,98.70
2023-02-09T21:59:22.499Z,98.60
2023-02-09T22:01:49.340Z,98.40
2023-02-09T22:04:16.163Z,98.30
2023-02-09T22:06:42.946Z,98.20
2023-02-09T22:09:09.731Z,98.20
2023-02-09T22:11:36.491Z,98.20
2023-02-09T22:14:03.531Z,98.30
2023-02-09T22:16:31.066Z,98.20
2023-02-09T22:18:59.327Z,98.10
2023-02-09T22:21:26.384Z,98.10
2023-02-09T22:23:54.095Z,98.00
2023-02-09T22:26:21.255Z,97.90
2023-02-09T22:28:48.652Z,97.80
2023-02-09T22:31:17.822Z,97.80
2023-02-09T22:33:45.103Z,97.80
2023-02-09T22:36:14.973Z,97.90
2023-02-09T22:38:42.284Z,97.70
2023-02-09T22:41:21.432Z,97.70
2023-02-09T22:43:54.001Z,97.80
2023-02-09T22:46:26.527Z,97.90
2023-02-09T22:48:58.448Z,98.00
2023-02-09T22:51:28.370Z,98.00
2023-02-09T22:53:56.194Z,98.10
2023-02-09T22:56:23.222Z,98.10
2023-02-09T22:58:52.078Z,98.10
2023-02-09T23:01:18.860Z,98.30
2023-02-09T23:03:45.647Z,98.20
2023-02-09T23:06:15.970Z,98.30
2023-02-09T23:08:43.264Z,98.40
2023-02-09T23:11:12.712Z,98.60
2023-02-09T23:13:40.097Z,98.60
2023-02-09T23:16:17.185Z,98.60
2023-02-09T23:18:49.978Z,98.80
2023-02-09T23:21:18.251Z,98.90
2023-02-09T23:23:45.797Z,98.60
2023-02-09T23:26:13.475Z,99.00
2023-02-09T23:28:40.348Z,99.10
2023-02-09T23:31:09.368Z,99.30
2023-02-09T23:33:37.510Z,99.70
2023-02-09T23:36:13.559Z,99.90
2023-02-09T23:38:40.529Z,99.90
2023-02-09T23:41:09.622Z,99.90
2023-02-09T23:46:20.676Z,99.90
2023-02-09T23:48:48.208Z,99.90
2023-02-09T23:51:20.365Z,99.90
2023-02-09T23:53:48.088Z,99.90
2023-02-09T23:56:17.416Z,99.90
2023-02-09T23:58:46.601Z,99.90
